createdAt,value
2022-10-02T00:00:21.825Z,73.76
2022-10-02T00:04:15.376Z,73.73
2022-10-02T00:07:49.991Z,74.00
2022-10-02T00:11:22.138Z,73.95
2022-10-02T00:14:52.143Z,73.97
2022-10-02T00:18:23.800Z,73.89
2022-10-02T00:22:13.695Z,74.16
2022-10-02T00:25:46.175Z,73.95
2022-10-02T00:29:33.569Z,74.15
2022-10-02T00:33:13.980Z,74.14
2022-10-02T00:36:51.026Z,73.99
2022-10-02T00:40:43.092Z,73.97
2022-10-02T00:44:24.377Z,74.19
2022-10-02T00:48:00.506Z,74.12
2022-10-02T00:51:47.526Z,74.02
2022-10-02T00:55:52.417Z,74.18
2022-10-02T00:59:32.022Z,74.12
2022-10-02T01:03:13.033Z,74.27
2022-10-02T01:06:40.262Z,74.04
2022-10-02T01:10:10.110Z,74.22
2022-10-02T01:13:36.731Z,74.34
2022-10-02T01:17:05.252Z,74.42
2022-10-02T01:20:38.152Z,74.42
2022-10-02T01:24:11.808Z,74.38
2022-10-02T01:27:39.611Z,74.41
2022-10-02T01:31:11.128Z,74.49
2022-10-02T01:34:38.337Z,74.60
2022-10-02T01:38:09.148Z,74.34
2022-10-02T01:41:41.555Z,74.53
2022-10-02T01:45:10.664Z,74.59
2022-10-02T01:48:52.226Z,74.53
2022-10-02T01:52:36.829Z,74.62
2022-10-02T01:56:13.116Z,74.63
2022-10-02T01:59:52.927Z,74.54
2022-10-02T02:03:23.840Z,74.52
2022-10-02T02:06:58.871Z,74.68
2022-10-02T02:10:29.005Z,74.84
2022-10-02T02:14:02.437Z,74.77
2022-10-02T02:17:34.514Z,74.85
2022-10-02T02:21:05.141Z,74.68
2022-10-02T02:24:37.664Z,74.76
2022-10-02T02:28:08.751Z,75.05
2022-10-02T02:31:41.428Z,74.79
2022-10-02T02:35:14.422Z,74.88
2022-10-02T02:38:45.985Z,74.98
2022-10-02T02:42:17.656Z,74.93
2022-10-02T02:45:53.311Z,75.04
2022-10-02T02:49:20.193Z,74.81
2022-10-02T02:52:53.323Z,75.07
2022-10-02T02:56:22.239Z,75.07
2022-10-02T02:59:51.652Z,74.89
2022-10-02T03:03:18.310Z,74.93
2022-10-02T03:06:47.361Z,75.06
2022-10-02T03:10:21.466Z,75.15
2022-10-02T03:14:02.192Z,75.13
2022-10-02T03:17:41.431Z,75.21
2022-10-02T03:21:14.933Z,74.98
2022-10-02T03:24:45.677Z,75.19
2022-10-02T03:28:31.859Z,75.29
2022-10-02T03:32:09.313Z,75.40
2022-10-02T03:35:36.558Z,75.20
2022-10-02T03:39:24.193Z,75.26
2022-10-02T03:42:52.871Z,75.12
2022-10-02T03:46:19.997Z,75.44
2022-10-02T03:49:47.996Z,75.47
2022-10-02T03:53:18.649Z,75.44
2022-10-02T03:56:52.549Z,75.29
2022-10-02T04:00:23.641Z,75.32
2022-10-02T04:03:55.659Z,75.48
2022-10-02T04:07:29.243Z,75.45
2022-10-02T04:11:05.003Z,75.40
2022-10-02T04:14:41.577Z,75.39
2022-10-02T04:18:15.334Z,75.15
2022-10-02T04:21:48.548Z,75.48
2022-10-02T04:25:19.793Z,75.32
2022-10-02T04:28:52.978Z,75.50
2022-10-02T04:32:21.309Z,75.35
2022-10-02T04:35:58.401Z,75.46
2022-10-02T04:39:44.582Z,75.60
2022-10-02T04:43:25.792Z,75.53
2022-10-02T04:47:13.838Z,75.63
2022-10-02T04:50:52.040Z,75.56
2022-10-02T04:54:41.288Z,75.66
2022-10-02T04:58:26.100Z,75.53
2022-10-02T05:02:06.394Z,75.54
2022-10-02T05:05:55.839Z,75.80
2022-10-02T05:09:31.499Z,75.73
2022-10-02T05:13:08.360Z,75.67
2022-10-02T05:16:52.844Z,75.62
2022-10-02T05:20:41.963Z,75.64
2022-10-02T05:24:37.091Z,75.60
2022-10-02T05:28:28.932Z,75.55
2022-10-02T05:32:11.130Z,75.57
2022-10-02T05:35:55.225Z,75.55
2022-10-02T05:39:29.196Z,75.47
2022-10-02T05:43:05.724Z,75.58
2022-10-02T05:46:39.040Z,75.67
2022-10-02T05:50:16.986Z,75.51
2022-10-02T05:53:48.838Z,75.57
2022-10-02T05:57:27.654Z,75.69
2022-10-02T06:01:00.271Z,75.64
2022-10-02T06:04:35.231Z,75.69
2022-10-02T06:08:05.511Z,75.92
2022-10-02T06:11:37.457Z,75.97
2022-10-02T06:15:09.503Z,75.97
2022-10-02T06:18:38.899Z,75.96
2022-10-02T06:22:11.042Z,76.05
2022-10-02T06:25:44.863Z,76.07
2022-10-02T06:29:21.492Z,76.06
2022-10-02T06:32:56.408Z,75.93
2022-10-02T06:36:56.974Z,76.01
2022-10-02T06:40:50.653Z,75.92
2022-10-02T06:44:27.671Z,75.96
2022-10-02T06:48:07.008Z,75.86
2022-10-02T06:51:47.928Z,75.96
2022-10-02T06:55:41.114Z,75.92
2022-10-02T06:59:20.873Z,76.16
2022-10-02T07:03:23.497Z,75.89
2022-10-02T07:07:11.545Z,76.14
2022-10-02T07:10:44.696Z,75.89
2022-10-02T07:14:30.713Z,75.95
2022-10-02T07:18:12.067Z,75.75
2022-10-02T07:21:52.055Z,75.91
2022-10-02T07:25:43.578Z,75.78
2022-10-02T07:29:32.684Z,75.65
2022-10-02T07:33:09.309Z,75.52
2022-10-02T07:36:45.949Z,75.54
2022-10-02T07:40:32.666Z,75.84
2022-10-02T07:44:11.815Z,75.81
2022-10-02T07:48:02.974Z,75.73
2022-10-02T07:51:50.045Z,75.75
2022-10-02T07:55:23.027Z,75.51
2022-10-02T07:58:57.084Z,75.30
2022-10-02T08:02:31.715Z,75.39
2022-10-02T08:06:00.777Z,75.42
2022-10-02T08:09:36.760Z,75.41
2022-10-02T08:13:20.793Z,75.12
2022-10-02T08:16:50.683Z,75.10
2022-10-02T08:20:27.417Z,75.14
2022-10-02T08:24:02.713Z,75.03
2022-10-02T08:27:49.384Z,74.82
2022-10-02T08:31:17.284Z,74.70
2022-10-02T08:34:45.032Z,74.81
2022-10-02T08:38:28.359Z,75.04
2022-10-02T08:42:30.620Z,75.23
2022-10-02T08:46:41.673Z,75.17
2022-10-02T08:50:30.385Z,74.71
2022-10-02T08:54:23.222Z,74.79
2022-10-02T08:58:27.614Z,74.89
2022-10-02T09:02:51.539Z,74.53
2022-10-02T09:06:43.180Z,74.62
2022-10-02T09:10:46.265Z,74.44
2022-10-02T09:14:35.279Z,74.47
2022-10-02T09:18:17.388Z,74.20
2022-10-02T09:21:56.405Z,74.41
2022-10-02T09:25:37.271Z,73.99
2022-10-02T09:29:48.517Z,73.98
2022-10-02T09:33:44.905Z,74.13
2022-10-02T09:37:41.971Z,74.27
2022-10-02T09:41:36.139Z,74.19
2022-10-02T09:45:36.808Z,74.18
2022-10-02T09:49:59.378Z,74.15
2022-10-02T09:53:47.126Z,74.02
2022-10-02T09:57:47.324Z,73.98
2022-10-02T10:01:35.471Z,74.14
2022-10-02T10:05:28.575Z,74.00
2022-10-02T10:09:41.545Z,73.85
2022-10-02T10:13:33.921Z,73.93
2022-10-02T10:17:31.983Z,73.95
2022-10-02T10:21:34.469Z,73.66
2022-10-02T10:25:28.967Z,73.64
2022-10-02T10:29:22.447Z,73.45
2022-10-02T10:33:25.987Z,73.49
2022-10-02T10:37:19.799Z,73.60
2022-10-02T10:41:26.429Z,73.57
2022-10-02T10:45:23.881Z,73.35
2022-10-02T10:49:33.334Z,73.32
2022-10-02T10:53:28.184Z,72.98
2022-10-02T10:57:01.339Z,72.99
2022-10-02T11:00:27.813Z,73.02
2022-10-02T11:04:17.910Z,73.05
2022-10-02T11:08:03.304Z,73.13
2022-10-02T11:11:40.961Z,72.90
2022-10-02T11:15:31.116Z,72.53
2022-10-02T11:19:21.855Z,72.26
2022-10-02T11:23:14.680Z,72.12
2022-10-02T11:26:57.312Z,71.93
2022-10-02T11:30:41.839Z,71.86
2022-10-02T11:34:47.040Z,71.73
2022-10-02T11:38:55.698Z,71.90
2022-10-02T11:43:00.801Z,71.60
2022-10-02T11:46:45.780Z,71.36
2022-10-02T11:50:43.682Z,70.98
2022-10-02T11:54:27.909Z,70.73
2022-10-02T11:58:12.511Z,70.71
2022-10-02T12:01:47.767Z,70.73
2022-10-02T12:05:38.357Z,70.74
2022-10-02T12:09:14.957Z,70.22
2022-10-02T12:12:51.749Z,69.77
2022-10-02T12:16:34.020Z,69.79
2022-10-02T12:20:33.881Z,69.34
2022-10-02T12:24:30.026Z,69.34
2022-10-02T12:28:05.996Z,69.25
2022-10-02T12:31:51.425Z,68.98
2022-10-02T12:35:47.115Z,68.29
2022-10-02T12:39:39.226Z,68.40
2022-10-02T12:43:43.552Z,68.03
2022-10-02T12:47:42.547Z,67.74
2022-10-02T12:51:36.009Z,67.25
2022-10-02T12:55:30.331Z,67.18
2022-10-02T12:59:12.030Z,66.70
2022-10-02T13:03:12.539Z,66.08
2022-10-02T13:07:16.386Z,65.66
2022-10-02T13:10:58.665Z,65.45
2022-10-02T13:14:56.013Z,65.66
2022-10-02T13:18:53.050Z,65.54
2022-10-02T13:22:31.632Z,65.90
2022-10-02T13:26:13.290Z,65.75
2022-10-02T13:29:53.453Z,65.13
2022-10-02T13:33:34.505Z,64.58
2022-10-02T13:37:20.716Z,64.54
2022-10-02T13:40:54.285Z,64.30
2022-10-02T13:44:26.050Z,63.77
2022-10-02T13:48:06.035Z,63.41
2022-10-02T13:51:44.145Z,63.38
2022-10-02T13:55:22.954Z,63.55
2022-10-02T13:59:08.587Z,63.51
2022-10-02T14:03:05.348Z,63.10
2022-10-02T14:06:39.401Z,62.98
2022-10-02T14:10:16.702Z,62.83
2022-10-02T14:14:03.445Z,62.55
2022-10-02T14:17:42.079Z,62.39
2022-10-02T14:21:21.803Z,62.09
2022-10-02T14:25:06.314Z,62.34
2022-10-02T14:28:48.847Z,62.30
2022-10-02T14:32:52.697Z,62.21
2022-10-02T14:36:27.786Z,62.35
2022-10-02T14:39:57.484Z,62.43
2022-10-02T14:43:55.643Z,62.42
2022-10-02T14:47:37.413Z,62.46
2022-10-02T14:51:36.051Z,62.54
2022-10-02T14:55:27.272Z,62.58
2022-10-02T14:59:10.320Z,62.45
2022-10-02T15:02:58.678Z,62.53
2022-10-02T15:06:39.351Z,62.66
2022-10-02T15:10:20.869Z,62.95
2022-10-02T15:13:52.897Z,63.23
2022-10-02T15:17:49.132Z,63.41
2022-10-02T15:21:28.222Z,63.71
2022-10-02T15:25:00.978Z,63.73
2022-10-02T15:28:42.135Z,63.99
2022-10-02T15:32:36.570Z,64.13
2022-10-02T15:36:36.161Z,64.30
2022-10-02T15:40:25.336Z,64.26
2022-10-02T15:44:08.801Z,64.40
2022-10-02T15:48:03.264Z,64.62
2022-10-02T15:52:02.283Z,64.84
2022-10-02T15:55:39.063Z,65.00
2022-10-02T15:59:38.707Z,64.98
2022-10-02T16:03:17.405Z,65.41
2022-10-02T16:07:05.238Z,65.55
2022-10-02T16:10:43.404Z,65.54
2022-10-02T16:14:16.780Z,65.86
2022-10-02T16:18:09.306Z,66.10
2022-10-02T16:22:06.016Z,66.09
2022-10-02T16:25:52.810Z,66.13
2022-10-02T16:29:32.735Z,66.33
2022-10-02T16:33:18.378Z,66.47
2022-10-02T16:36:52.400Z,66.56
2022-10-02T16:40:30.384Z,66.54
2022-10-02T16:44:08.315Z,67.03
2022-10-02T16:47:45.968Z,66.96
2022-10-02T16:51:33.100Z,67.23
2022-10-02T16:55:13.477Z,67.34
2022-10-02T16:58:49.727Z,67.15
2022-10-02T17:02:23.921Z,67.37
2022-10-02T17:05:54.712Z,67.46
2022-10-02T17:09:30.425Z,67.54
2022-10-02T17:13:08.666Z,67.54
2022-10-02T17:16:41.944Z,67.52
2022-10-02T17:20:21.873Z,67.75
2022-10-02T17:23:57.427Z,67.74
2022-10-02T17:27:47.633Z,67.79
2022-10-02T17:31:26.352Z,68.02
2022-10-02T17:34:53.476Z,68.33
2022-10-02T17:38:48.973Z,68.25
2022-10-02T17:42:32.843Z,68.47
2022-10-02T17:46:26.723Z,68.54
2022-10-02T17:50:06.576Z,68.66
2022-10-02T17:54:13.575Z,68.55
2022-10-02T17:57:54.746Z,68.80
2022-10-02T18:01:31.936Z,68.91
2022-10-02T18:05:21.006Z,68.79
2022-10-02T18:09:13.531Z,68.92
2022-10-02T18:13:02.061Z,68.87
2022-10-02T18:16:51.984Z,68.93
2022-10-02T18:20:34.486Z,69.12
2022-10-02T18:24:34.764Z,69.17
2022-10-02T18:28:37.009Z,69.25
2022-10-02T18:32:25.482Z,69.14
2022-10-02T18:36:05.109Z,69.31
2022-10-02T18:40:02.099Z,69.50
2022-10-02T18:44:03.297Z,69.55
2022-10-02T18:47:45.728Z,69.86
2022-10-02T18:51:32.867Z,69.77
2022-10-02T18:55:36.470Z,69.86
2022-10-02T18:59:22.745Z,69.86
2022-10-02T19:03:17.450Z,69.90
2022-10-02T19:06:59.389Z,70.10
2022-10-02T19:10:45.080Z,70.27
2022-10-02T19:14:22.661Z,70.25
2022-10-02T19:18:01.403Z,70.36
2022-10-02T19:21:30.650Z,70.36
2022-10-02T19:25:17.481Z,70.27
2022-10-02T19:28:51.762Z,70.56
2022-10-02T19:32:26.391Z,70.52
2022-10-02T19:35:54.479Z,70.52
2022-10-02T19:39:28.850Z,70.43
2022-10-02T19:43:05.862Z,70.44
2022-10-02T19:46:41.058Z,70.42
2022-10-02T19:50:23.105Z,70.61
2022-10-02T19:54:07.488Z,70.64
2022-10-02T19:57:43.056Z,70.72
2022-10-02T20:01:20.850Z,70.86
2022-10-02T20:04:50.756Z,70.99
2022-10-02T20:08:25.748Z,71.12
2022-10-02T20:11:59.786Z,71.22
2022-10-02T20:15:48.494Z,71.18
2022-10-02T20:19:23.113Z,71.24
2022-10-02T20:22:59.175Z,71.38
2022-10-02T20:26:30.921Z,71.45
2022-10-02T20:30:07.138Z,71.51
2022-10-02T20:33:41.417Z,71.58
2022-10-02T20:37:14.741Z,71.57
2022-10-02T20:40:50.270Z,71.65
2022-10-02T20:44:28.820Z,71.51
2022-10-02T20:49:06.908Z,71.62
2022-10-02T20:53:02.446Z,71.67
2022-10-02T20:56:49.306Z,71.68
2022-10-02T21:00:21.445Z,71.68
2022-10-02T21:04:39.724Z,71.76
2022-10-02T21:12:36.153Z,71.87
2022-10-02T21:16:31.595Z,71.80
2022-10-02T21:20:46.123Z,71.83
2022-10-02T21:25:01.323Z,71.88
2022-10-02T21:28:58.386Z,71.85
2022-10-02T21:32:43.072Z,71.96
2022-10-02T21:36:17.529Z,72.02
2022-10-02T21:43:50.789Z,72.08
2022-10-02T21:47:48.794Z,72.04
2022-10-02T21:51:51.900Z,72.28
2022-10-02T21:56:10.106Z,72.39
2022-10-02T22:00:14.281Z,72.36
2022-10-02T22:04:11.831Z,72.45
2022-10-02T22:07:49.031Z,72.56
2022-10-02T22:11:30.624Z,72.61
2022-10-02T22:15:11.917Z,72.68
2022-10-02T22:18:45.009Z,72.66
2022-10-02T22:22:26.643Z,72.83
2022-10-02T22:26:10.534Z,72.77
2022-10-02T22:29:48.087Z,72.76
2022-10-02T22:33:39.536Z,72.90
2022-10-02T22:37:28.394Z,73.00
2022-10-02T22:40:59.306Z,73.10
2022-10-02T22:44:32.745Z,72.96
2022-10-02T22:48:06.323Z,73.09
2022-10-02T22:51:45.559Z,73.20
2022-10-02T22:55:20.331Z,73.19
2022-10-02T22:58:55.510Z,73.13
2022-10-02T23:02:29.193Z,73.33
2022-10-02T23:06:01.246Z,73.43
2022-10-02T23:09:36.681Z,73.43
2022-10-02T23:13:17.484Z,73.26
2022-10-02T23:16:50.157Z,73.46
2022-10-02T23:20:26.537Z,73.43
2022-10-02T23:24:00.091Z,73.61
2022-10-02T23:27:37.828Z,73.51
2022-10-02T23:31:17.504Z,73.52
2022-10-02T23:34:53.202Z,73.49
2022-10-02T23:38:34.737Z,73.52
2022-10-02T23:42:05.480Z,73.59
2022-10-02T23:45:38.132Z,73.68
2022-10-02T23:49:06.080Z,73.78
2022-10-02T23:53:12.611Z,73.79
2022-10-02T23:56:52.920Z,73.72
